sensor_id;sensor_type;location;lat;lon;timestamp;temperature;humidity
29281;DHT22;25048;49.590;11.026;2023-06-05T00:00:44;12.40;90.90
29281;DHT22;25048;49.590;11.026;2023-06-05T00:03:11;12.30;91.00
29281;DHT22;25048;49.590;11.026;2023-06-05T00:05:39;12.20;91.60
29281;DHT22;25048;49.590;11.026;2023-06-05T00:08:06;12.10;91.90
29281;DHT22;25048;49.590;11.026;2023-06-05T00:10:34;12.10;92.40
29281;DHT22;25048;49.590;11.026;2023-06-05T00:13:01;12.00;92.70
29281;DHT22;25048;49.590;11.026;2023-06-05T00:15:29;11.90;93.20
29281;DHT22;25048;49.590;11.026;2023-06-05T00:17:58;11.80;93.60
29281;DHT22;25048;49.590;11.026;2023-06-05T00:20:26;11.70;94.00
29281;DHT22;25048;49.590;11.026;2023-06-05T00:22:54;11.70;94.50
29281;DHT22;25048;49.590;11.026;2023-06-05T00:25:21;11.60;95.00
29281;DHT22;25048;49.590;11.026;2023-06-05T00:27:49;11.60;95.50
29281;DHT22;25048;49.590;11.026;2023-06-05T00:30:16;11.50;96.00
29281;DHT22;25048;49.590;11.026;2023-06-05T00:32:44;11.50;96.70
29281;DHT22;25048;49.590;11.026;2023-06-05T00:35:12;11.50;97.30
29281;DHT22;25048;49.590;11.026;2023-06-05T00:37:39;11.40;98.00
29281;DHT22;25048;49.590;11.026;2023-06-05T00:40:07;11.40;98.90
29281;DHT22;25048;49.590;11.026;2023-06-05T00:42:35;11.40;99.10
29281;DHT22;25048;49.590;11.026;2023-06-05T00:45:03;11.40;99.60
29281;DHT22;25048;49.590;11.026;2023-06-05T00:47:31;11.30;99.90
29281;DHT22;25048;49.590;11.026;2023-06-05T00:49:59;11.30;99.90
29281;DHT22;25048;49.590;11.026;2023-06-05T00:52:27;11.30;99.90
29281;DHT22;25048;49.590;11.026;2023-06-05T00:54:55;11.30;99.90
29281;DHT22;25048;49.590;11.026;2023-06-05T00:57:22;11.20;99.90
29281;DHT22;25048;49.590;11.026;2023-06-05T00:59:50;11.30;99.90
29281;DHT22;25048;49.590;11.026;2023-06-05T01:02:19;11.20;99.90
29281;DHT22;25048;49.590;11.026;2023-06-05T01:04:47;11.20;99.90
29281;DHT22;25048;49.590;11.026;2023-06-05T01:07:15;11.20;99.90
29281;DHT22;25048;49.590;11.026;2023-06-05T01:09:43;11.10;99.90
29281;DHT22;25048;49.590;11.026;2023-06-05T01:14:58;11.10;99.90
29281;DHT22;25048;49.590;11.026;2023-06-05T01:17:27;11.10;99.90
29281;DHT22;25048;49.590;11.026;2023-06-05T01:19:56;11.00;99.90
29281;DHT22;25048;49.590;11.026;2023-06-05T01:22:28;11.00;99.90
29281;DHT22;25048;49.590;11.026;2023-06-05T01:24:57;11.00;99.90
29281;DHT22;25048;49.590;11.026;2023-06-05T01:27:31;10.90;99.90
29281;DHT22;25048;49.590;11.026;2023-06-05T01:30:05;10.80;99.90
29281;DHT22;25048;49.590;11.026;2023-06-05T01:32:47;10.80;99.90
29281;DHT22;25048;49.590;11.026;2023-06-05T01:35:16;10.70;99.90
29281;DHT22;25048;49.590;11.026;2023-06-05T01:37:45;10.70;99.90
29281;DHT22;25048;49.590;11.026;2023-06-05T01:40:17;10.60;99.90
29281;DHT22;25048;49.590;11.026;2023-06-05T01:42:46;10.50;99.90
29281;DHT22;25048;49.590;11.026;2023-06-05T01:45:16;10.50;99.90
29281;DHT22;25048;49.590;11.026;2023-06-05T01:47:44;10.40;99.90
29281;DHT22;25048;49.590;11.026;2023-06-05T01:50:14;10.40;99.90
29281;DHT22;25048;49.590;11.026;2023-06-05T01:52:42;10.40;99.90
29281;DHT22;25048;49.590;11.026;2023-06-05T01:55:18;10.30;99.90
29281;DHT22;25048;49.590;11.026;2023-06-05T01:57:43;10.30;99.90
29281;DHT22;25048;49.590;11.026;2023-06-05T02:00:11;10.20;99.90
29281;DHT22;25048;49.590;11.026;2023-06-05T02:02:46;10.20;99.90
29281;DHT22;25048;49.590;11.026;2023-06-05T02:05:14;10.10;99.90
29281;DHT22;25048;49.590;11.026;2023-06-05T02:07:45;10.10;99.90
29281;DHT22;25048;49.590;11.026;2023-06-05T02:10:22;10.00;99.90
29281;DHT22;25048;49.590;11.026;2023-06-05T02:12:50;10.00;99.90
29281;DHT22;25048;49.590;11.026;2023-06-05T02:15:18;10.00;99.90
29281;DHT22;25048;49.590;11.026;2023-06-05T02:17:46;10.00;99.90
29281;DHT22;25048;49.590;11.026;2023-06-05T02:20:15;10.00;99.90
29281;DHT22;25048;49.590;11.026;2023-06-05T02:22:44;10.00;99.90
29281;DHT22;25048;49.590;11.026;2023-06-05T02:25:11;10.00;99.90
29281;DHT22;25048;49.590;11.026;2023-06-05T02:27:40;10.00;99.90
29281;DHT22;25048;49.590;11.026;2023-06-05T02:30:08;10.10;99.90
29281;DHT22;25048;49.590;11.026;2023-06-05T02:32:36;10.10;99.90
29281;DHT22;25048;49.590;11.026;2023-06-05T02:35:05;10.20;99.90
29281;DHT22;25048;49.590;11.026;2023-06-05T02:37:33;10.20;99.90
29281;DHT22;25048;49.590;11.026;2023-06-05T02:40:05;10.20;99.90
29281;DHT22;25048;49.590;11.026;2023-06-05T02:42:36;10.20;99.90
29281;DHT22;25048;49.590;11.026;2023-06-05T02:45:04;10.20;99.90
29281;DHT22;25048;49.590;11.026;2023-06-05T02:47:32;10.20;99.90
29281;DHT22;25048;49.590;11.026;2023-06-05T02:50:00;10.10;99.90
29281;DHT22;25048;49.590;11.026;2023-06-05T02:52:28;10.00;99.90
29281;DHT22;25048;49.590;11.026;2023-06-05T02:54:56;9.90;99.90
29281;DHT22;25048;49.590;11.026;2023-06-05T02:57:23;9.90;99.90
29281;DHT22;25048;49.590;11.026;2023-06-05T02:59:52;9.80;99.90
29281;DHT22;25048;49.590;11.026;2023-06-05T03:02:21;9.80;99.90
29281;DHT22;25048;49.590;11.026;2023-06-05T03:04:49;9.70;99.90
29281;DHT22;25048;49.590;11.026;2023-06-05T03:07:19;9.70;99.90
29281;DHT22;25048;49.590;11.026;2023-06-05T03:09:47;9.60;99.90
29281;DHT22;25048;49.590;11.026;2023-06-05T03:12:14;9.50;99.90
29281;DHT22;25048;49.590;11.026;2023-06-05T03:14:42;9.50;99.90
29281;DHT22;25048;49.590;11.026;2023-06-05T03:17:09;9.50;99.90
29281;DHT22;25048;49.590;11.026;2023-06-05T03:19:37;9.40;99.90
29281;DHT22;25048;49.590;11.026;2023-06-05T03:22:04;9.40;99.90
29281;DHT22;25048;49.590;11.026;2023-06-05T03:24:32;9.30;99.90
29281;DHT22;25048;49.590;11.026;2023-06-05T03:27:01;9.30;99.90
29281;DHT22;25048;49.590;11.026;2023-06-05T03:29:28;9.20;99.90
29281;DHT22;25048;49.590;11.026;2023-06-05T03:31:56;9.20;99.90
29281;DHT22;25048;49.590;11.026;2023-06-05T03:34:23;9.20;99.90
29281;DHT22;25048;49.590;11.026;2023-06-05T03:36:55;9.10;99.90
29281;DHT22;25048;49.590;11.026;2023-06-05T03:39:24;9.10;99.90
29281;DHT22;25048;49.590;11.026;2023-06-05T03:41:52;9.10;99.90
29281;DHT22;25048;49.590;11.026;2023-06-05T03:44:20;9.10;99.90
29281;DHT22;25048;49.590;11.026;2023-06-05T03:46:49;9.10;99.90
29281;DHT22;25048;49.590;11.026;2023-06-05T03:49:16;9.10;99.90
29281;DHT22;25048;49.590;11.026;2023-06-05T03:51:44;9.10;99.90
29281;DHT22;25048;49.590;11.026;2023-06-05T03:54:12;9.10;99.90
29281;DHT22;25048;49.590;11.026;2023-06-05T03:56:39;9.10;99.90
29281;DHT22;25048;49.590;11.026;2023-06-05T03:59:08;9.10;99.90
29281;DHT22;25048;49.590;11.026;2023-06-05T04:01:37;9.10;99.90
29281;DHT22;25048;49.590;11.026;2023-06-05T04:04:05;9.20;99.90
29281;DHT22;25048;49.590;11.026;2023-06-05T04:06:33;9.20;99.90
29281;DHT22;25048;49.590;11.026;2023-06-05T04:09:03;9.20;99.90
29281;DHT22;25048;49.590;11.026;2023-06-05T04:11:32;9.20;99.90
29281;DHT22;25048;49.590;11.026;2023-06-05T04:14:00;9.30;99.90
29281;DHT22;25048;49.590;11.026;2023-06-05T04:16:27;9.30;99.90
29281;DHT22;25048;49.590;11.026;2023-06-05T04:18:56;9.40;99.90
29281;DHT22;25048;49.590;11.026;2023-06-05T04:21:23;9.50;99.90
29281;DHT22;25048;49.590;11.026;2023-06-05T04:23:52;9.50;99.90
29281;DHT22;25048;49.590;11.026;2023-06-05T04:26:19;9.60;99.90
29281;DHT22;25048;49.590;11.026;2023-06-05T04:28:48;9.70;99.90
29281;DHT22;25048;49.590;11.026;2023-06-05T04:31:17;9.80;99.90
29281;DHT22;25048;49.590;11.026;2023-06-05T04:33:44;9.80;99.90
29281;DHT22;25048;49.590;11.026;2023-06-05T04:36:13;9.90;99.90
29281;DHT22;25048;49.590;11.026;2023-06-05T04:38:41;10.00;99.90
29281;DHT22;25048;49.590;11.026;2023-06-05T04:41:08;10.10;99.90
29281;DHT22;25048;49.590;11.026;2023-06-05T04:43:37;10.20;99.90
29281;DHT22;25048;49.590;11.026;2023-06-05T04:46:05;10.30;99.90
29281;DHT22;25048;49.590;11.026;2023-06-05T04:48:32;10.50;99.90
29281;DHT22;25048;49.590;11.026;2023-06-05T04:51:01;10.60;99.90
29281;DHT22;25048;49.590;11.026;2023-06-05T04:53:28;10.70;99.90
29281;DHT22;25048;49.590;11.026;2023-06-05T04:55:58;10.90;99.90
29281;DHT22;25048;49.590;11.026;2023-06-05T04:58:28;11.00;99.90
29281;DHT22;25048;49.590;11.026;2023-06-05T05:00:56;11.20;99.90
29281;DHT22;25048;49.590;11.026;2023-06-05T05:03:25;11.40;99.90
29281;DHT22;25048;49.590;11.026;2023-06-05T05:05:54;11.60;99.90
29281;DHT22;25048;49.590;11.026;2023-06-05T05:08:21;11.80;99.90
29281;DHT22;25048;49.590;11.026;2023-06-05T05:10:49;12.10;99.90
29281;DHT22;25048;49.590;11.026;2023-06-05T05:13:16;12.30;99.90
29281;DHT22;25048;49.590;11.026;2023-06-05T05:15:44;12.50;99.90
29281;DHT22;25048;49.590;11.026;2023-06-05T05:18:13;12.70;99.90
29281;DHT22;25048;49.590;11.026;2023-06-05T05:20:41;13.00;99.90
29281;DHT22;25048;49.590;11.026;2023-06-05T05:23:08;13.20;99.90
29281;DHT22;25048;49.590;11.026;2023-06-05T05:25:38;13.50;99.90
29281;DHT22;25048;49.590;11.026;2023-06-05T05:28:06;13.70;99.90
29281;DHT22;25048;49.590;11.026;2023-06-05T05:30:35;13.90;99.90
29281;DHT22;25048;49.590;11.026;2023-06-05T05:33:02;14.10;99.90
29281;DHT22;25048;49.590;11.026;2023-06-05T05:35:30;14.30;99.90
29281;DHT22;25048;49.590;11.026;2023-06-05T05:37:58;14.60;99.90
29281;DHT22;25048;49.590;11.026;2023-06-05T05:40:25;14.80;99.90
29281;DHT22;25048;49.590;11.026;2023-06-05T05:42:53;15.30;99.90
29281;DHT22;25048;49.590;11.026;2023-06-05T05:45:21;15.80;99.90
29281;DHT22;25048;49.590;11.026;2023-06-05T05:47:49;16.30;99.90
29281;DHT22;25048;49.590;11.026;2023-06-05T05:50:16;16.80;99.90
29281;DHT22;25048;49.590;11.026;2023-06-05T05:52:44;17.30;98.90
29281;DHT22;25048;49.590;11.026;2023-06-05T05:55:11;17.80;97.20
29281;DHT22;25048;49.590;11.026;2023-06-05T05:57:39;18.20;95.60
29281;DHT22;25048;49.590;11.026;2023-06-05T06:00:07;18.60;94.60
29281;DHT22;25048;49.590;11.026;2023-06-05T06:02:36;18.90;94.20
29281;DHT22;25048;49.590;11.026;2023-06-05T06:05:04;19.30;92.40
29281;DHT22;25048;49.590;11.026;2023-06-05T06:07:32;19.60;92.70
29281;DHT22;25048;49.590;11.026;2023-06-05T06:09:59;19.80;91.10
29281;DHT22;25048;49.590;11.026;2023-06-05T06:12:27;20.00;88.80
29281;DHT22;25048;49.590;11.026;2023-06-05T06:14:55;20.20;87.60
29281;DHT22;25048;49.590;11.026;2023-06-05T06:17:22;20.50;87.30
29281;DHT22;25048;49.590;11.026;2023-06-05T06:19:50;20.60;86.30
29281;DHT22;25048;49.590;11.026;2023-06-05T06:22:19;20.80;86.60
29281;DHT22;25048;49.590;11.026;2023-06-05T06:24:47;21.00;86.70
29281;DHT22;25048;49.590;11.026;2023-06-05T06:27:16;21.10;85.40
29281;DHT22;25048;49.590;11.026;2023-06-05T06:29:49;21.20;85.20
29281;DHT22;25048;49.590;11.026;2023-06-05T06:32:19;21.30;83.00
29281;DHT22;25048;49.590;11.026;2023-06-05T06:34:48;21.40;81.80
29281;DHT22;25048;49.590;11.026;2023-06-05T06:37:16;21.40;80.30
29281;DHT22;25048;49.590;11.026;2023-06-05T06:39:46;21.50;79.10
29281;DHT22;25048;49.590;11.026;2023-06-05T06:42:13;21.60;79.90
29281;DHT22;25048;49.590;11.026;2023-06-05T06:44:41;21.70;78.80
29281;DHT22;25048;49.590;11.026;2023-06-05T06:47:09;21.70;78.70
29281;DHT22;25048;49.590;11.026;2023-06-05T06:49:37;21.80;78.40
29281;DHT22;25048;49.590;11.026;2023-06-05T06:52:06;21.80;78.00
29281;DHT22;25048;49.590;11.026;2023-06-05T06:54:33;21.80;77.40
29281;DHT22;25048;49.590;11.026;2023-06-05T06:57:01;21.90;74.70
29281;DHT22;25048;49.590;11.026;2023-06-05T06:59:28;21.90;74.30
29281;DHT22;25048;49.590;11.026;2023-06-05T07:02:19;22.00;75.70
29281;DHT22;25048;49.590;11.026;2023-06-05T07:04:47;22.10;74.80
29281;DHT22;25048;49.590;11.026;2023-06-05T07:07:17;22.20;74.40
29281;DHT22;25048;49.590;11.026;2023-06-05T07:09:45;22.20;73.80
29281;DHT22;25048;49.590;11.026;2023-06-05T07:12:14;22.30;73.90
29281;DHT22;25048;49.590;11.026;2023-06-05T07:14:43;22.40;73.90
29281;DHT22;25048;49.590;11.026;2023-06-05T07:17:11;22.50;73.80
29281;DHT22;25048;49.590;11.026;2023-06-05T07:19:38;22.60;73.90
29281;DHT22;25048;49.590;11.026;2023-06-05T07:22:07;22.70;72.00
29281;DHT22;25048;49.590;11.026;2023-06-05T07:24:35;22.70;71.90
29281;DHT22;25048;49.590;11.026;2023-06-05T07:27:05;22.90;72.10
29281;DHT22;25048;49.590;11.026;2023-06-05T07:29:32;22.90;71.20
29281;DHT22;25048;49.590;11.026;2023-06-05T07:32:00;23.00;72.20
29281;DHT22;25048;49.590;11.026;2023-06-05T07:34:29;23.00;72.00
29281;DHT22;25048;49.590;11.026;2023-06-05T07:36:57;23.10;73.40
29281;DHT22;25048;49.590;11.026;2023-06-05T07:39:24;23.10;74.70
29281;DHT22;25048;49.590;11.026;2023-06-05T07:41:52;23.20;77.00
29281;DHT22;25048;49.590;11.026;2023-06-05T07:44:21;23.30;76.20
29281;DHT22;25048;49.590;11.026;2023-06-05T07:46:49;23.40;76.80
29281;DHT22;25048;49.590;11.026;2023-06-05T07:49:17;23.60;78.10
29281;DHT22;25048;49.590;11.026;2023-06-05T07:51:46;23.70;76.70
29281;DHT22;25048;49.590;11.026;2023-06-05T07:54:16;23.80;76.00
29281;DHT22;25048;49.590;11.026;2023-06-05T07:56:46;23.90;76.80
29281;DHT22;25048;49.590;11.026;2023-06-05T07:59:15;24.00;75.50
29281;DHT22;25048;49.590;11.026;2023-06-05T08:01:43;24.10;74.70
29281;DHT22;25048;49.590;11.026;2023-06-05T08:04:11;24.20;74.30
29281;DHT22;25048;49.590;11.026;2023-06-05T08:06:39;24.40;75.50
29281;DHT22;25048;49.590;11.026;2023-06-05T08:09:08;24.50;73.10
29281;DHT22;25048;49.590;11.026;2023-06-05T08:11:37;24.50;72.40
29281;DHT22;25048;49.590;11.026;2023-06-05T08:14:08;24.60;72.70
29281;DHT22;25048;49.590;11.026;2023-06-05T08:16:36;24.70;73.30
29281;DHT22;25048;49.590;11.026;2023-06-05T08:19:04;24.90;72.80
29281;DHT22;25048;49.590;11.026;2023-06-05T08:21:31;25.10;73.30
29281;DHT22;25048;49.590;11.026;2023-06-05T08:23:59;25.30;72.50
29281;DHT22;25048;49.590;11.026;2023-06-05T08:26:26;25.40;70.40
29281;DHT22;25048;49.590;11.026;2023-06-05T08:28:54;25.50;71.30
29281;DHT22;25048;49.590;11.026;2023-06-05T08:31:21;25.60;71.20
29281;DHT22;25048;49.590;11.026;2023-06-05T08:33:49;25.70;71.40
29281;DHT22;25048;49.590;11.026;2023-06-05T08:36:17;25.90;71.00
29281;DHT22;25048;49.590;11.026;2023-06-05T08:38:45;25.90;70.80
29281;DHT22;25048;49.590;11.026;2023-06-05T08:41:14;26.10;71.20
29281;DHT22;25048;49.590;11.026;2023-06-05T08:43:42;26.20;69.40
29281;DHT22;25048;49.590;11.026;2023-06-05T08:46:13;26.30;70.10
29281;DHT22;25048;49.590;11.026;2023-06-05T08:48:46;26.50;68.80
29281;DHT22;25048;49.590;11.026;2023-06-05T08:51:16;26.60;68.90
29281;DHT22;25048;49.590;11.026;2023-06-05T08:53:57;26.80;68.50
29281;DHT22;25048;49.590;11.026;2023-06-05T08:56:15;27.00;67.30
29281;DHT22;25048;49.590;11.026;2023-06-05T08:58:44;27.10;66.00
29281;DHT22;25048;49.590;11.026;2023-06-05T09:01:11;27.20;65.60
29281;DHT22;25048;49.590;11.026;2023-06-05T09:03:39;27.30;65.60
29281;DHT22;25048;49.590;11.026;2023-06-05T09:06:08;27.30;66.90
29281;DHT22;25048;49.590;11.026;2023-06-05T09:08:36;27.40;64.70
29281;DHT22;25048;49.590;11.026;2023-06-05T09:11:23;27.50;63.30
29281;DHT22;25048;49.590;11.026;2023-06-05T09:13:52;27.60;62.90
29281;DHT22;25048;49.590;11.026;2023-06-05T09:16:21;27.60;64.00
29281;DHT22;25048;49.590;11.026;2023-06-05T09:18:57;27.70;65.10
29281;DHT22;25048;49.590;11.026;2023-06-05T09:21:27;27.80;63.30
29281;DHT22;25048;49.590;11.026;2023-06-05T09:24:15;27.80;65.20
29281;DHT22;25048;49.590;11.026;2023-06-05T09:29:21;28.10;65.20
29281;DHT22;25048;49.590;11.026;2023-06-05T09:31:50;28.30;63.10
29281;DHT22;25048;49.590;11.026;2023-06-05T09:34:26;28.30;63.80
29281;DHT22;25048;49.590;11.026;2023-06-05T09:37:02;28.40;65.50
29281;DHT22;25048;49.590;11.026;2023-06-05T09:39:27;28.60;64.70
29281;DHT22;25048;49.590;11.026;2023-06-05T09:41:56;28.70;63.90
29281;DHT22;25048;49.590;11.026;2023-06-05T09:44:25;28.70;64.60
29281;DHT22;25048;49.590;11.026;2023-06-05T09:52:12;29.00;63.70
29281;DHT22;25048;49.590;11.026;2023-06-05T09:54:42;29.00;63.00
29281;DHT22;25048;49.590;11.026;2023-06-05T09:57:12;29.00;63.00
29281;DHT22;25048;49.590;11.026;2023-06-05T09:59:51;28.90;63.20
29281;DHT22;25048;49.590;11.026;2023-06-05T10:02:24;28.80;65.30
29281;DHT22;25048;49.590;11.026;2023-06-05T10:04:57;28.90;63.60
29281;DHT22;25048;49.590;11.026;2023-06-05T10:07:27;29.10;64.00
29281;DHT22;25048;49.590;11.026;2023-06-05T10:09:54;29.20;63.20
29281;DHT22;25048;49.590;11.026;2023-06-05T10:12:24;29.40;63.70
29281;DHT22;25048;49.590;11.026;2023-06-05T10:14:54;29.50;64.70
29281;DHT22;25048;49.590;11.026;2023-06-05T10:17:22;29.50;62.70
29281;DHT22;25048;49.590;11.026;2023-06-05T10:19:51;29.50;64.20
29281;DHT22;25048;49.590;11.026;2023-06-05T10:22:18;29.30;60.70
29281;DHT22;25048;49.590;11.026;2023-06-05T10:27:51;29.40;64.40
29281;DHT22;25048;49.590;11.026;2023-06-05T10:33:17;29.90;63.40
29281;DHT22;25048;49.590;11.026;2023-06-05T10:35:45;29.90;62.60
29281;DHT22;25048;49.590;11.026;2023-06-05T10:38:26;30.10;60.90
29281;DHT22;25048;49.590;11.026;2023-06-05T10:40:58;30.10;61.00
29281;DHT22;25048;49.590;11.026;2023-06-05T10:43:47;29.90;61.60
29281;DHT22;25048;49.590;11.026;2023-06-05T10:46:32;29.60;62.90
29281;DHT22;25048;49.590;11.026;2023-06-05T10:49:17;28.90;63.40
29281;DHT22;25048;49.590;11.026;2023-06-05T10:51:53;28.40;63.00
29281;DHT22;25048;49.590;11.026;2023-06-05T10:56:54;28.80;63.80
29281;DHT22;25048;49.590;11.026;2023-06-05T10:59:25;29.10;63.20
29281;DHT22;25048;49.590;11.026;2023-06-05T11:10:15;29.80;62.70
29281;DHT22;25048;49.590;11.026;2023-06-05T11:15:34;29.90;61.30
29281;DHT22;25048;49.590;11.026;2023-06-05T11:18:28;29.60;61.10
29281;DHT22;25048;49.590;11.026;2023-06-05T11:20:56;29.50;63.40
29281;DHT22;25048;49.590;11.026;2023-06-05T11:23:24;29.50;60.80
29281;DHT22;25048;49.590;11.026;2023-06-05T11:25:56;29.40;61.40
29281;DHT22;25048;49.590;11.026;2023-06-05T11:28:43;29.20;62.80
29281;DHT22;25048;49.590;11.026;2023-06-05T11:31:11;29.40;63.90
29281;DHT22;25048;49.590;11.026;2023-06-05T11:33:39;29.40;61.60
29281;DHT22;25048;49.590;11.026;2023-06-05T11:36:07;29.10;65.10
29281;DHT22;25048;49.590;11.026;2023-06-05T11:38:35;29.00;64.10
29281;DHT22;25048;49.590;11.026;2023-06-05T11:41:08;29.10;63.00
29281;DHT22;25048;49.590;11.026;2023-06-05T11:43:42;29.20;65.30
29281;DHT22;25048;49.590;11.026;2023-06-05T11:46:10;29.40;65.40
29281;DHT22;25048;49.590;11.026;2023-06-05T11:48:45;29.70;64.80
29281;DHT22;25048;49.590;11.026;2023-06-05T11:51:13;30.10;62.40
29281;DHT22;25048;49.590;11.026;2023-06-05T11:53:45;30.40;63.30
29281;DHT22;25048;49.590;11.026;2023-06-05T11:56:14;30.80;62.60
29281;DHT22;25048;49.590;11.026;2023-06-05T11:58:44;31.00;60.80
29281;DHT22;25048;49.590;11.026;2023-06-05T12:01:18;30.90;59.90
29281;DHT22;25048;49.590;11.026;2023-06-05T12:04:04;30.30;60.30
29281;DHT22;25048;49.590;11.026;2023-06-05T12:06:32;29.70;62.20
29281;DHT22;25048;49.590;11.026;2023-06-05T12:09:10;29.50;63.40
29281;DHT22;25048;49.590;11.026;2023-06-05T12:11:38;29.80;63.80
29281;DHT22;25048;49.590;11.026;2023-06-05T12:14:06;30.00;64.50
29281;DHT22;25048;49.590;11.026;2023-06-05T12:16:36;30.10;59.80
29281;DHT22;25048;49.590;11.026;2023-06-05T12:19:19;29.60;61.10
29281;DHT22;25048;49.590;11.026;2023-06-05T12:21:48;29.10;63.50
29281;DHT22;25048;49.590;11.026;2023-06-05T12:24:25;29.10;62.90
29281;DHT22;25048;49.590;11.026;2023-06-05T12:26:55;29.40;61.80
29281;DHT22;25048;49.590;11.026;2023-06-05T12:29:30;29.80;64.70
29281;DHT22;25048;49.590;11.026;2023-06-05T12:32:00;30.00;62.40
29281;DHT22;25048;49.590;11.026;2023-06-05T12:34:47;29.60;61.50
29281;DHT22;25048;49.590;11.026;2023-06-05T12:37:30;29.60;61.70
29281;DHT22;25048;49.590;11.026;2023-06-05T12:40:02;29.80;64.70
29281;DHT22;25048;49.590;11.026;2023-06-05T12:42:33;30.10;60.90
29281;DHT22;25048;49.590;11.026;2023-06-05T12:45:04;30.30;61.80
29281;DHT22;25048;49.590;11.026;2023-06-05T12:47:34;30.50;61.70
29281;DHT22;25048;49.590;11.026;2023-06-05T12:50:04;30.20;61.50
29281;DHT22;25048;49.590;11.026;2023-06-05T12:52:33;30.20;64.70
29281;DHT22;25048;49.590;11.026;2023-06-05T12:55:01;30.50;60.00
29281;DHT22;25048;49.590;11.026;2023-06-05T12:57:30;30.60;60.10
29281;DHT22;25048;49.590;11.026;2023-06-05T12:59:58;30.70;59.70
29281;DHT22;25048;49.590;11.026;2023-06-05T13:02:26;30.30;59.30
29281;DHT22;25048;49.590;11.026;2023-06-05T13:04:55;29.50;59.60
29281;DHT22;25048;49.590;11.026;2023-06-05T13:07:23;28.80;60.70
29281;DHT22;25048;49.590;11.026;2023-06-05T13:09:51;28.20;62.90
29281;DHT22;25048;49.590;11.026;2023-06-05T13:12:18;27.80;62.90
29281;DHT22;25048;49.590;11.026;2023-06-05T13:14:46;27.80;65.10
29281;DHT22;25048;49.590;11.026;2023-06-05T13:17:13;27.80;66.40
29281;DHT22;25048;49.590;11.026;2023-06-05T13:19:41;28.50;67.40
29281;DHT22;25048;49.590;11.026;2023-06-05T13:22:08;28.70;61.80
29281;DHT22;25048;49.590;11.026;2023-06-05T13:24:36;28.50;62.30
29281;DHT22;25048;49.590;11.026;2023-06-05T13:27:04;28.60;62.60
29281;DHT22;25048;49.590;11.026;2023-06-05T13:29:31;28.50;63.80
29281;DHT22;25048;49.590;11.026;2023-06-05T13:31:59;28.30;64.00
29281;DHT22;25048;49.590;11.026;2023-06-05T13:34:26;28.60;64.00
29281;DHT22;25048;49.590;11.026;2023-06-05T13:36:54;29.00;63.90
29281;DHT22;25048;49.590;11.026;2023-06-05T13:39:23;29.40;61.90
29281;DHT22;25048;49.590;11.026;2023-06-05T13:41:50;29.70;62.80
29281;DHT22;25048;49.590;11.026;2023-06-05T13:44:18;30.10;62.50
29281;DHT22;25048;49.590;11.026;2023-06-05T13:46:45;30.50;61.30
29281;DHT22;25048;49.590;11.026;2023-06-05T13:49:13;31.00;60.80
29281;DHT22;25048;49.590;11.026;2023-06-05T13:51:41;31.40;59.10
29281;DHT22;25048;49.590;11.026;2023-06-05T13:54:09;31.60;57.80
29281;DHT22;25048;49.590;11.026;2023-06-05T13:56:36;31.50;57.90
29281;DHT22;25048;49.590;11.026;2023-06-05T13:59:04;31.70;56.80
29281;DHT22;25048;49.590;11.026;2023-06-05T14:01:31;31.90;58.10
29281;DHT22;25048;49.590;11.026;2023-06-05T14:03:59;32.20;57.30
29281;DHT22;25048;49.590;11.026;2023-06-05T14:06:26;32.50;56.70
29281;DHT22;25048;49.590;11.026;2023-06-05T14:08:54;32.80;57.10
29281;DHT22;25048;49.590;11.026;2023-06-05T14:11:21;33.00;57.20
29281;DHT22;25048;49.590;11.026;2023-06-05T14:13:49;33.20;55.40
29281;DHT22;25048;49.590;11.026;2023-06-05T14:16:16;33.50;56.10
29281;DHT22;25048;49.590;11.026;2023-06-05T14:18:44;33.50;54.00
29281;DHT22;25048;49.590;11.026;2023-06-05T14:21:11;33.40;54.20
29281;DHT22;25048;49.590;11.026;2023-06-05T14:23:39;33.40;54.20
29281;DHT22;25048;49.590;11.026;2023-06-05T14:26:06;33.30;53.40
29281;DHT22;25048;49.590;11.026;2023-06-05T14:28:35;33.30;52.60
29281;DHT22;25048;49.590;11.026;2023-06-05T14:31:03;33.20;52.90
29281;DHT22;25048;49.590;11.026;2023-06-05T14:33:31;33.10;53.70
29281;DHT22;25048;49.590;11.026;2023-06-05T14:35:58;33.10;56.70
29281;DHT22;25048;49.590;11.026;2023-06-05T14:38:26;33.40;55.70
29281;DHT22;25048;49.590;11.026;2023-06-05T14:40:53;33.70;55.00
29281;DHT22;25048;49.590;11.026;2023-06-05T14:43:22;33.60;53.90
29281;DHT22;25048;49.590;11.026;2023-06-05T14:45:50;32.90;53.70
29281;DHT22;25048;49.590;11.026;2023-06-05T14:48:17;32.00;55.00
29281;DHT22;25048;49.590;11.026;2023-06-05T14:50:45;31.10;55.90
29281;DHT22;25048;49.590;11.026;2023-06-05T14:53:13;30.40;57.00
29281;DHT22;25048;49.590;11.026;2023-06-05T14:55:41;30.30;57.20
29281;DHT22;25048;49.590;11.026;2023-06-05T14:58:08;30.50;56.40
29281;DHT22;25048;49.590;11.026;2023-06-05T15:00:37;30.90;56.60
29281;DHT22;25048;49.590;11.026;2023-06-05T15:03:05;31.30;55.50
29281;DHT22;25048;49.590;11.026;2023-06-05T15:05:33;31.50;54.70
29281;DHT22;25048;49.590;11.026;2023-06-05T15:08:00;31.60;55.80
29281;DHT22;25048;49.590;11.026;2023-06-05T15:10:28;31.80;55.50
29281;DHT22;25048;49.590;11.026;2023-06-05T15:12:55;31.90;55.70
29281;DHT22;25048;49.590;11.026;2023-06-05T15:15:24;32.10;55.70
29281;DHT22;25048;49.590;11.026;2023-06-05T15:17:55;32.40;55.60
29281;DHT22;25048;49.590;11.026;2023-06-05T15:20:24;32.60;54.70
29281;DHT22;25048;49.590;11.026;2023-06-05T15:22:53;32.70;54.10
29281;DHT22;25048;49.590;11.026;2023-06-05T15:25:20;32.70;56.00
29281;DHT22;25048;49.590;11.026;2023-06-05T15:27:49;32.80;54.10
29281;DHT22;25048;49.590;11.026;2023-06-05T15:30:17;32.90;53.20
29281;DHT22;25048;49.590;11.026;2023-06-05T15:32:45;32.60;54.00
29281;DHT22;25048;49.590;11.026;2023-06-05T15:35:12;31.70;53.60
29281;DHT22;25048;49.590;11.026;2023-06-05T15:37:40;30.80;55.40
29281;DHT22;25048;49.590;11.026;2023-06-05T15:40:08;29.70;57.10
29281;DHT22;25048;49.590;11.026;2023-06-05T15:42:37;28.70;58.80
29281;DHT22;25048;49.590;11.026;2023-06-05T15:45:13;27.80;60.50
29281;DHT22;25048;49.590;11.026;2023-06-05T15:47:42;26.90;63.50
29281;DHT22;25048;49.590;11.026;2023-06-05T15:50:10;26.20;65.00
29281;DHT22;25048;49.590;11.026;2023-06-05T15:52:39;25.70;66.00
29281;DHT22;25048;49.590;11.026;2023-06-05T15:55:07;25.30;66.20
29281;DHT22;25048;49.590;11.026;2023-06-05T15:57:35;25.10;67.40
29281;DHT22;25048;49.590;11.026;2023-06-05T16:00:03;25.40;67.80